CL41 weather

Oakland Convention Center Heliport
Oakland, California, United States

Public forecast

Using degrees Fahrenheit for public forecast. Weather courtesy of forecast.io.

Closest aviation weather report (METAR) to Oakland Convention Center Heliport

Closest report is Metropolitan Oakland International Airport, 5.5 nm (10.2 km) SSE. Retrieved 2019/10/16 02:53 UTC (20 minutes ago):

KOAK 160253Z 29006KT 10SM CLR 14/10 A3003 RMK AO2 SLP169 T01390100 53004

Closest aviation forecast (TAF) to Oakland Convention Center Heliport

Closest forecast is Metropolitan Oakland International Airport, 5.5 nm (10.2 km) SSE. Retrieved 2019-10-16 00:27 UTC (3 hours ago):

TAF KOAK 152325Z 1600/1706 29010KT P6SM FEW010 FM160500 30005KT P6SM SCT010 FM160900 VRB03KT P6SM BKN010 FM161200 VRB03KT 5SM BR BKN008 FM161800 26009KT P6SM FEW012 BKN200 FM162300 24010KT P6SM FEW010 SCT080 BKN150